sensor_id;sensor_type;location;lat;lon;timestamp;P1;durP1;ratioP1;P2;durP2;ratioP2
36799;SDS011;22752;51.960;5.886;2022-07-23T00:00:58;1.50;;;1.40;;
36799;SDS011;22752;51.960;5.886;2022-07-23T00:03:24;4.35;;;2.03;;
36799;SDS011;22752;51.960;5.886;2022-07-23T00:05:49;3.42;;;1.50;;
36799;SDS011;22752;51.960;5.886;2022-07-23T00:08:15;3.63;;;1.80;;
36799;SDS011;22752;51.960;5.886;2022-07-23T00:10:41;2.05;;;1.70;;
36799;SDS011;22752;51.960;5.886;2022-07-23T00:13:07;4.97;;;1.52;;
36799;SDS011;22752;51.960;5.886;2022-07-23T00:15:32;3.25;;;1.63;;
36799;SDS011;22752;51.960;5.886;2022-07-23T00:17:58;2.45;;;1.77;;
36799;SDS011;22752;51.960;5.886;2022-07-23T00:20:24;2.92;;;1.67;;
36799;SDS011;22752;51.960;5.886;2022-07-23T00:22:50;5.13;;;1.90;;
36799;SDS011;22752;51.960;5.886;2022-07-23T00:25:18;3.60;;;1.80;;
36799;SDS011;22752;51.960;5.886;2022-07-23T00:27:45;3.72;;;2.13;;
36799;SDS011;22752;51.960;5.886;2022-07-23T00:30:10;4.18;;;1.90;;
36799;SDS011;22752;51.960;5.886;2022-07-23T00:35:11;3.50;;;2.40;;
36799;SDS011;22752;51.960;5.886;2022-07-23T00:37:37;4.80;;;2.72;;
36799;SDS011;22752;51.960;5.886;2022-07-23T00:40:03;4.82;;;2.75;;
36799;SDS011;22752;51.960;5.886;2022-07-23T00:42:30;4.25;;;3.10;;
36799;SDS011;22752;51.960;5.886;2022-07-23T00:44:56;4.80;;;3.20;;
36799;SDS011;22752;51.960;5.886;2022-07-23T00:47:22;5.38;;;3.10;;
36799;SDS011;22752;51.960;5.886;2022-07-23T00:49:48;8.88;;;3.40;;
36799;SDS011;22752;51.960;5.886;2022-07-23T00:52:13;6.38;;;3.17;;
36799;SDS011;22752;51.960;5.886;2022-07-23T00:54:39;6.28;;;3.40;;
36799;SDS011;22752;51.960;5.886;2022-07-23T00:57:05;6.72;;;3.35;;
36799;SDS011;22752;51.960;5.886;2022-07-23T00:59:31;5.13;;;3.08;;
36799;SDS011;22752;51.960;5.886;2022-07-23T01:01:56;4.05;;;2.88;;
36799;SDS011;22752;51.960;5.886;2022-07-23T01:04:22;4.30;;;3.15;;
36799;SDS011;22752;51.960;5.886;2022-07-23T01:06:48;5.13;;;3.13;;
36799;SDS011;22752;51.960;5.886;2022-07-23T01:09:13;4.85;;;3.15;;
36799;SDS011;22752;51.960;5.886;2022-07-23T01:11:39;5.25;;;2.97;;
36799;SDS011;22752;51.960;5.886;2022-07-23T01:16:39;3.95;;;3.05;;
36799;SDS011;22752;51.960;5.886;2022-07-23T01:19:06;4.22;;;3.15;;
36799;SDS011;22752;51.960;5.886;2022-07-23T01:21:36;7.10;;;2.80;;
36799;SDS011;22752;51.960;5.886;2022-07-23T01:24:05;2.72;;;2.50;;
36799;SDS011;22752;51.960;5.886;2022-07-23T01:26:32;4.15;;;3.00;;
36799;SDS011;22752;51.960;5.886;2022-07-23T01:28:57;5.40;;;3.42;;
36799;SDS011;22752;51.960;5.886;2022-07-23T01:31:23;5.63;;;2.88;;
36799;SDS011;22752;51.960;5.886;2022-07-23T01:33:50;3.67;;;2.50;;
36799;SDS011;22752;51.960;5.886;2022-07-23T01:36:15;4.35;;;2.47;;
36799;SDS011;22752;51.960;5.886;2022-07-23T01:38:41;4.15;;;2.50;;
36799;SDS011;22752;51.960;5.886;2022-07-23T01:41:06;2.97;;;2.70;;
36799;SDS011;22752;51.960;5.886;2022-07-23T01:43:32;4.05;;;3.13;;
36799;SDS011;22752;51.960;5.886;2022-07-23T01:45:58;3.03;;;2.72;;
36799;SDS011;22752;51.960;5.886;2022-07-23T01:48:23;3.50;;;2.78;;
36799;SDS011;22752;51.960;5.886;2022-07-23T01:50:49;2.88;;;2.40;;
36799;SDS011;22752;51.960;5.886;2022-07-23T01:53:15;5.03;;;2.97;;
36799;SDS011;22752;51.960;5.886;2022-07-23T01:55:41;3.00;;;2.70;;
36799;SDS011;22752;51.960;5.886;2022-07-23T01:58:07;5.05;;;2.92;;
36799;SDS011;22752;51.960;5.886;2022-07-23T02:00:33;4.57;;;2.90;;
36799;SDS011;22752;51.960;5.886;2022-07-23T02:02:58;8.63;;;3.00;;
36799;SDS011;22752;51.960;5.886;2022-07-23T02:05:25;2.97;;;2.60;;
36799;SDS011;22752;51.960;5.886;2022-07-23T02:07:51;3.05;;;2.50;;
36799;SDS011;22752;51.960;5.886;2022-07-23T02:10:17;2.63;;;2.42;;
36799;SDS011;22752;51.960;5.886;2022-07-23T02:12:43;3.25;;;2.60;;
36799;SDS011;22752;51.960;5.886;2022-07-23T02:15:08;3.85;;;2.53;;
36799;SDS011;22752;51.960;5.886;2022-07-23T02:17:34;3.58;;;2.63;;
36799;SDS011;22752;51.960;5.886;2022-07-23T02:20:00;5.72;;;2.83;;
36799;SDS011;22752;51.960;5.886;2022-07-23T02:22:26;3.47;;;2.80;;
36799;SDS011;22752;51.960;5.886;2022-07-23T02:24:52;3.65;;;2.70;;
36799;SDS011;22752;51.960;5.886;2022-07-23T02:27:17;4.07;;;3.08;;
36799;SDS011;22752;51.960;5.886;2022-07-23T02:29:43;4.18;;;3.28;;
36799;SDS011;22752;51.960;5.886;2022-07-23T02:32:08;4.72;;;2.90;;
36799;SDS011;22752;51.960;5.886;2022-07-23T02:34:34;4.95;;;3.05;;
36799;SDS011;22752;51.960;5.886;2022-07-23T02:36:59;7.97;;;3.10;;
36799;SDS011;22752;51.960;5.886;2022-07-23T02:39:25;4.28;;;3.47;;
36799;SDS011;22752;51.960;5.886;2022-07-23T02:41:52;6.15;;;3.40;;
36799;SDS011;22752;51.960;5.886;2022-07-23T02:44:17;4.20;;;2.65;;
36799;SDS011;22752;51.960;5.886;2022-07-23T02:46:43;4.03;;;3.10;;
36799;SDS011;22752;51.960;5.886;2022-07-23T02:49:09;5.60;;;3.00;;
36799;SDS011;22752;51.960;5.886;2022-07-23T02:51:34;4.82;;;3.50;;
36799;SDS011;22752;51.960;5.886;2022-07-23T02:54:00;5.10;;;2.63;;
36799;SDS011;22752;51.960;5.886;2022-07-23T02:56:25;3.65;;;2.78;;
36799;SDS011;22752;51.960;5.886;2022-07-23T02:58:51;2.97;;;2.22;;
36799;SDS011;22752;51.960;5.886;2022-07-23T03:01:17;3.53;;;2.53;;
36799;SDS011;22752;51.960;5.886;2022-07-23T03:03:42;3.53;;;2.80;;
36799;SDS011;22752;51.960;5.886;2022-07-23T03:06:08;3.70;;;2.65;;
36799;SDS011;22752;51.960;5.886;2022-07-23T03:08:33;3.15;;;2.40;;
36799;SDS011;22752;51.960;5.886;2022-07-23T03:10:59;2.80;;;2.30;;
36799;SDS011;22752;51.960;5.886;2022-07-23T03:13:25;2.80;;;2.60;;
36799;SDS011;22752;51.960;5.886;2022-07-23T03:15:51;5.00;;;2.28;;
36799;SDS011;22752;51.960;5.886;2022-07-23T03:18:16;3.17;;;2.53;;
36799;SDS011;22752;51.960;5.886;2022-07-23T03:20:42;4.57;;;2.50;;
36799;SDS011;22752;51.960;5.886;2022-07-23T03:23:08;4.15;;;2.58;;
36799;SDS011;22752;51.960;5.886;2022-07-23T03:25:33;5.28;;;2.70;;
36799;SDS011;22752;51.960;5.886;2022-07-23T03:27:59;3.25;;;2.20;;
36799;SDS011;22752;51.960;5.886;2022-07-23T03:30:24;3.72;;;2.20;;
36799;SDS011;22752;51.960;5.886;2022-07-23T03:32:51;2.60;;;2.40;;
36799;SDS011;22752;51.960;5.886;2022-07-23T03:35:17;3.35;;;2.65;;
36799;SDS011;22752;51.960;5.886;2022-07-23T03:37:42;4.22;;;2.67;;
36799;SDS011;22752;51.960;5.886;2022-07-23T03:40:08;3.47;;;2.30;;
36799;SDS011;22752;51.960;5.886;2022-07-23T03:42:34;5.28;;;2.50;;
36799;SDS011;22752;51.960;5.886;2022-07-23T03:45:02;4.43;;;2.50;;
36799;SDS011;22752;51.960;5.886;2022-07-23T03:47:28;2.22;;;2.00;;
36799;SDS011;22752;51.960;5.886;2022-07-23T03:49:54;2.40;;;2.20;;
36799;SDS011;22752;51.960;5.886;2022-07-23T03:52:19;2.28;;;2.08;;
36799;SDS011;22752;51.960;5.886;2022-07-23T03:54:45;3.45;;;1.98;;
36799;SDS011;22752;51.960;5.886;2022-07-23T03:57:10;3.10;;;1.92;;
36799;SDS011;22752;51.960;5.886;2022-07-23T03:59:36;3.42;;;2.20;;
36799;SDS011;22752;51.960;5.886;2022-07-23T04:02:02;3.53;;;1.83;;
36799;SDS011;22752;51.960;5.886;2022-07-23T04:04:27;2.05;;;1.85;;
36799;SDS011;22752;51.960;5.886;2022-07-23T04:06:53;3.78;;;2.00;;
36799;SDS011;22752;51.960;5.886;2022-07-23T04:09:18;3.55;;;1.90;;
36799;SDS011;22752;51.960;5.886;2022-07-23T04:11:44;4.07;;;2.05;;
36799;SDS011;22752;51.960;5.886;2022-07-23T04:14:10;3.22;;;1.98;;
36799;SDS011;22752;51.960;5.886;2022-07-23T04:16:35;3.08;;;2.10;;
36799;SDS011;22752;51.960;5.886;2022-07-23T04:19:01;3.17;;;2.30;;
36799;SDS011;22752;51.960;5.886;2022-07-23T04:21:29;4.93;;;2.00;;
36799;SDS011;22752;51.960;5.886;2022-07-23T04:23:55;2.35;;;2.10;;
36799;SDS011;22752;51.960;5.886;2022-07-23T04:26:21;4.03;;;2.13;;
36799;SDS011;22752;51.960;5.886;2022-07-23T04:28:46;2.30;;;1.85;;
36799;SDS011;22752;51.960;5.886;2022-07-23T04:31:12;2.78;;;1.88;;
36799;SDS011;22752;51.960;5.886;2022-07-23T04:33:37;3.40;;;2.13;;
36799;SDS011;22752;51.960;5.886;2022-07-23T04:36:03;3.30;;;2.15;;
36799;SDS011;22752;51.960;5.886;2022-07-23T04:38:29;3.17;;;1.90;;
36799;SDS011;22752;51.960;5.886;2022-07-23T04:40:54;2.30;;;2.03;;
36799;SDS011;22752;51.960;5.886;2022-07-23T04:43:20;1.73;;;1.63;;
36799;SDS011;22752;51.960;5.886;2022-07-23T04:45:46;2.80;;;1.90;;
36799;SDS011;22752;51.960;5.886;2022-07-23T04:48:11;3.05;;;1.50;;
36799;SDS011;22752;51.960;5.886;2022-07-23T04:50:37;2.13;;;1.50;;
36799;SDS011;22752;51.960;5.886;2022-07-23T04:53:03;3.00;;;1.77;;
36799;SDS011;22752;51.960;5.886;2022-07-23T04:55:29;1.60;;;1.50;;
36799;SDS011;22752;51.960;5.886;2022-07-23T04:57:54;3.30;;;1.65;;
36799;SDS011;22752;51.960;5.886;2022-07-23T05:00:20;3.67;;;1.38;;
36799;SDS011;22752;51.960;5.886;2022-07-23T05:02:46;2.03;;;1.50;;
36799;SDS011;22752;51.960;5.886;2022-07-23T05:05:11;1.73;;;1.45;;
36799;SDS011;22752;51.960;5.886;2022-07-23T05:07:37;2.40;;;1.48;;
36799;SDS011;22752;51.960;5.886;2022-07-23T05:10:02;1.55;;;1.30;;
36799;SDS011;22752;51.960;5.886;2022-07-23T05:12:28;4.35;;;1.60;;
36799;SDS011;22752;51.960;5.886;2022-07-23T05:14:54;3.20;;;1.30;;
36799;SDS011;22752;51.960;5.886;2022-07-23T05:17:19;3.47;;;1.30;;
36799;SDS011;22752;51.960;5.886;2022-07-23T05:19:45;4.88;;;1.40;;
36799;SDS011;22752;51.960;5.886;2022-07-23T05:22:11;3.25;;;1.40;;
36799;SDS011;22752;51.960;5.886;2022-07-23T05:24:36;4.15;;;1.40;;
36799;SDS011;22752;51.960;5.886;2022-07-23T05:27:02;4.40;;;1.63;;
36799;SDS011;22752;51.960;5.886;2022-07-23T05:29:28;4.15;;;1.98;;
36799;SDS011;22752;51.960;5.886;2022-07-23T05:31:53;1.65;;;1.30;;
36799;SDS011;22752;51.960;5.886;2022-07-23T05:34:19;2.85;;;1.20;;
36799;SDS011;22752;51.960;5.886;2022-07-23T05:36:44;4.78;;;1.25;;
36799;SDS011;22752;51.960;5.886;2022-07-23T05:39:10;2.53;;;1.23;;
36799;SDS011;22752;51.960;5.886;2022-07-23T05:41:36;4.55;;;1.30;;
36799;SDS011;22752;51.960;5.886;2022-07-23T05:44:01;2.67;;;1.20;;
36799;SDS011;22752;51.960;5.886;2022-07-23T05:46:27;4.18;;;1.38;;
36799;SDS011;22752;51.960;5.886;2022-07-23T05:48:53;2.45;;;1.00;;
36799;SDS011;22752;51.960;5.886;2022-07-23T05:51:22;2.75;;;1.08;;
36799;SDS011;22752;51.960;5.886;2022-07-23T05:53:48;2.92;;;1.33;;
36799;SDS011;22752;51.960;5.886;2022-07-23T05:56:14;3.17;;;1.23;;
36799;SDS011;22752;51.960;5.886;2022-07-23T05:58:40;4.75;;;1.40;;
36799;SDS011;22752;51.960;5.886;2022-07-23T06:01:06;6.68;;;1.80;;
36799;SDS011;22752;51.960;5.886;2022-07-23T06:03:32;3.15;;;1.20;;
36799;SDS011;22752;51.960;5.886;2022-07-23T06:05:57;3.47;;;1.10;;
36799;SDS011;22752;51.960;5.886;2022-07-23T06:08:23;3.72;;;1.20;;
36799;SDS011;22752;51.960;5.886;2022-07-23T06:10:49;3.13;;;1.15;;
36799;SDS011;22752;51.960;5.886;2022-07-23T06:13:14;3.67;;;1.40;;
36799;SDS011;22752;51.960;5.886;2022-07-23T06:15:42;3.40;;;1.40;;
36799;SDS011;22752;51.960;5.886;2022-07-23T06:18:07;3.75;;;1.40;;
36799;SDS011;22752;51.960;5.886;2022-07-23T06:20:33;2.30;;;1.17;;
36799;SDS011;22752;51.960;5.886;2022-07-23T06:22:59;2.85;;;1.40;;
36799;SDS011;22752;51.960;5.886;2022-07-23T06:25:24;3.63;;;1.13;;
36799;SDS011;22752;51.960;5.886;2022-07-23T06:27:50;5.47;;;1.25;;
36799;SDS011;22752;51.960;5.886;2022-07-23T06:30:16;2.95;;;1.20;;
36799;SDS011;22752;51.960;5.886;2022-07-23T06:32:42;4.43;;;1.27;;
36799;SDS011;22752;51.960;5.886;2022-07-23T06:35:08;3.15;;;1.30;;
36799;SDS011;22752;51.960;5.886;2022-07-23T06:37:34;3.10;;;1.60;;
36799;SDS011;22752;51.960;5.886;2022-07-23T06:40:00;2.67;;;1.27;;
36799;SDS011;22752;51.960;5.886;2022-07-23T06:42:25;3.67;;;1.13;;
36799;SDS011;22752;51.960;5.886;2022-07-23T06:44:51;3.40;;;1.10;;
36799;SDS011;22752;51.960;5.886;2022-07-23T06:47:17;5.72;;;1.25;;
36799;SDS011;22752;51.960;5.886;2022-07-23T06:49:42;2.38;;;0.82;;
36799;SDS011;22752;51.960;5.886;2022-07-23T06:52:08;3.15;;;0.90;;
36799;SDS011;22752;51.960;5.886;2022-07-23T06:54:34;2.60;;;1.20;;
36799;SDS011;22752;51.960;5.886;2022-07-23T06:57:00;4.15;;;1.30;;
36799;SDS011;22752;51.960;5.886;2022-07-23T06:59:26;3.15;;;1.10;;
36799;SDS011;22752;51.960;5.886;2022-07-23T07:01:52;3.58;;;1.20;;
36799;SDS011;22752;51.960;5.886;2022-07-23T07:04:17;4.55;;;1.30;;
36799;SDS011;22752;51.960;5.886;2022-07-23T07:06:43;5.70;;;1.42;;
36799;SDS011;22752;51.960;5.886;2022-07-23T07:09:08;2.22;;;1.23;;
36799;SDS011;22752;51.960;5.886;2022-07-23T07:11:34;2.53;;;0.98;;
36799;SDS011;22752;51.960;5.886;2022-07-23T07:14:00;3.03;;;1.20;;
36799;SDS011;22752;51.960;5.886;2022-07-23T07:16:25;2.13;;;1.02;;
36799;SDS011;22752;51.960;5.886;2022-07-23T07:18:51;3.80;;;1.38;;
36799;SDS011;22752;51.960;5.886;2022-07-23T07:21:16;3.45;;;1.55;;
36799;SDS011;22752;51.960;5.886;2022-07-23T07:23:42;3.83;;;1.30;;
36799;SDS011;22752;51.960;5.886;2022-07-23T07:26:08;3.58;;;1.40;;
36799;SDS011;22752;51.960;5.886;2022-07-23T07:28:33;2.67;;;1.20;;
36799;SDS011;22752;51.960;5.886;2022-07-23T07:30:59;1.63;;;1.10;;
36799;SDS011;22752;51.960;5.886;2022-07-23T07:33:24;2.15;;;1.00;;
36799;SDS011;22752;51.960;5.886;2022-07-23T07:35:50;2.50;;;1.20;;
36799;SDS011;22752;51.960;5.886;2022-07-23T07:38:16;1.40;;;0.85;;
36799;SDS011;22752;51.960;5.886;2022-07-23T07:40:41;2.45;;;1.40;;
36799;SDS011;22752;51.960;5.886;2022-07-23T07:43:07;5.45;;;1.42;;
36799;SDS011;22752;51.960;5.886;2022-07-23T07:45:33;3.40;;;1.42;;
36799;SDS011;22752;51.960;5.886;2022-07-23T07:47:58;2.22;;;1.00;;
36799;SDS011;22752;51.960;5.886;2022-07-23T07:50:24;2.83;;;1.05;;
36799;SDS011;22752;51.960;5.886;2022-07-23T07:52:50;4.78;;;1.40;;
36799;SDS011;22752;51.960;5.886;2022-07-23T07:55:15;4.32;;;1.30;;
36799;SDS011;22752;51.960;5.886;2022-07-23T07:57:41;1.65;;;1.13;;
36799;SDS011;22752;51.960;5.886;2022-07-23T08:00:07;3.53;;;1.35;;
36799;SDS011;22752;51.960;5.886;2022-07-23T08:02:44;2.22;;;0.98;;
36799;SDS011;22752;51.960;5.886;2022-07-23T08:05:12;2.88;;;1.40;;
36799;SDS011;22752;51.960;5.886;2022-07-23T08:07:39;2.55;;;1.10;;
36799;SDS011;22752;51.960;5.886;2022-07-23T08:10:06;3.60;;;1.25;;
36799;SDS011;22752;51.960;5.886;2022-07-23T08:12:40;2.45;;;1.23;;
36799;SDS011;22752;51.960;5.886;2022-07-23T08:15:07;2.80;;;1.13;;
36799;SDS011;22752;51.960;5.886;2022-07-23T08:17:34;2.45;;;1.02;;
36799;SDS011;22752;51.960;5.886;2022-07-23T08:19:59;3.83;;;1.20;;
36799;SDS011;22752;51.960;5.886;2022-07-23T08:22:25;1.70;;;1.00;;
36799;SDS011;22752;51.960;5.886;2022-07-23T08:24:50;3.58;;;1.48;;
36799;SDS011;22752;51.960;5.886;2022-07-23T08:27:16;4.80;;;1.40;;
36799;SDS011;22752;51.960;5.886;2022-07-23T08:29:41;3.65;;;1.48;;
36799;SDS011;22752;51.960;5.886;2022-07-23T08:32:07;4.65;;;1.17;;
36799;SDS011;22752;51.960;5.886;2022-07-23T08:34:33;2.20;;;1.20;;
36799;SDS011;22752;51.960;5.886;2022-07-23T08:36:58;3.50;;;1.30;;
36799;SDS011;22752;51.960;5.886;2022-07-23T08:39:24;5.40;;;1.27;;
36799;SDS011;22752;51.960;5.886;2022-07-23T08:41:50;3.55;;;1.30;;
36799;SDS011;22752;51.960;5.886;2022-07-23T08:44:16;1.25;;;0.98;;
36799;SDS011;22752;51.960;5.886;2022-07-23T08:46:42;2.33;;;1.25;;
36799;SDS011;22752;51.960;5.886;2022-07-23T08:49:09;3.22;;;1.20;;
36799;SDS011;22752;51.960;5.886;2022-07-23T08:51:36;3.83;;;1.20;;
36799;SDS011;22752;51.960;5.886;2022-07-23T08:54:01;2.60;;;1.23;;
36799;SDS011;22752;51.960;5.886;2022-07-23T08:56:29;3.15;;;1.10;;
36799;SDS011;22752;51.960;5.886;2022-07-23T08:58:54;3.10;;;1.20;;
36799;SDS011;22752;51.960;5.886;2022-07-23T09:01:20;1.65;;;1.00;;
36799;SDS011;22752;51.960;5.886;2022-07-23T09:03:45;2.92;;;1.10;;
36799;SDS011;22752;51.960;5.886;2022-07-23T09:06:11;2.20;;;1.00;;
36799;SDS011;22752;51.960;5.886;2022-07-23T09:08:38;2.15;;;1.13;;
36799;SDS011;22752;51.960;5.886;2022-07-23T09:11:16;2.80;;;1.13;;
36799;SDS011;22752;51.960;5.886;2022-07-23T09:16:25;2.15;;;1.20;;
36799;SDS011;22752;51.960;5.886;2022-07-23T09:18:55;4.38;;;1.48;;
36799;SDS011;22752;51.960;5.886;2022-07-23T09:21:29;2.83;;;1.05;;
36799;SDS011;22752;51.960;5.886;2022-07-23T09:24:00;2.97;;;1.25;;
36799;SDS011;22752;51.960;5.886;2022-07-23T09:26:28;2.23;;;1.30;;
36799;SDS011;22752;51.960;5.886;2022-07-23T09:29:17;1.85;;;1.23;;
36799;SDS011;22752;51.960;5.886;2022-07-23T09:34:22;6.32;;;1.80;;
36799;SDS011;22752;51.960;5.886;2022-07-23T09:36:50;3.72;;;1.30;;
36799;SDS011;22752;51.960;5.886;2022-07-23T09:39:25;3.20;;;1.33;;
36799;SDS011;22752;51.960;5.886;2022-07-23T09:44:19;3.40;;;1.20;;
36799;SDS011;22752;51.960;5.886;2022-07-23T09:46:49;2.20;;;1.10;;
36799;SDS011;22752;51.960;5.886;2022-07-23T09:49:17;2.20;;;1.20;;
36799;SDS011;22752;51.960;5.886;2022-07-23T09:51:54;4.45;;;1.30;;
36799;SDS011;22752;51.960;5.886;2022-07-23T09:56:53;2.88;;;1.40;;
36799;SDS011;22752;51.960;5.886;2022-07-23T09:59:22;9.05;;;1.52;;
36799;SDS011;22752;51.960;5.886;2022-07-23T10:01:50;1.55;;;0.90;;
36799;SDS011;22752;51.960;5.886;2022-07-23T10:04:16;1.60;;;1.20;;
36799;SDS011;22752;51.960;5.886;2022-07-23T10:06:43;1.83;;;1.10;;
36799;SDS011;22752;51.960;5.886;2022-07-23T10:09:10;5.10;;;1.27;;
36799;SDS011;22752;51.960;5.886;2022-07-23T10:11:37;4.90;;;1.75;;
36799;SDS011;22752;51.960;5.886;2022-07-23T10:14:03;2.42;;;1.27;;
36799;SDS011;22752;51.960;5.886;2022-07-23T10:16:30;1.65;;;1.20;;
36799;SDS011;22752;51.960;5.886;2022-07-23T10:18:56;2.22;;;1.42;;
36799;SDS011;22752;51.960;5.886;2022-07-23T10:21:27;2.75;;;1.20;;
36799;SDS011;22752;51.960;5.886;2022-07-23T10:26:55;4.00;;;1.52;;
36799;SDS011;22752;51.960;5.886;2022-07-23T10:29:33;2.35;;;1.10;;
36799;SDS011;22752;51.960;5.886;2022-07-23T10:37:28;4.53;;;1.55;;
36799;SDS011;22752;51.960;5.886;2022-07-23T10:40:16;2.65;;;1.60;;
36799;SDS011;22752;51.960;5.886;2022-07-23T10:42:44;1.95;;;1.50;;
36799;SDS011;22752;51.960;5.886;2022-07-23T10:45:27;2.58;;;1.48;;
36799;SDS011;22752;51.960;5.886;2022-07-23T10:47:55;1.77;;;1.40;;
36799;SDS011;22752;51.960;5.886;2022-07-23T10:50:35;4.13;;;1.90;;
36799;SDS011;22752;51.960;5.886;2022-07-23T10:55:39;5.70;;;1.70;;
36799;SDS011;22752;51.960;5.886;2022-07-23T10:58:07;5.03;;;1.75;;
36799;SDS011;22752;51.960;5.886;2022-07-23T11:00:33;3.13;;;1.77;;
36799;SDS011;22752;51.960;5.886;2022-07-23T11:03:01;4.72;;;1.70;;
36799;SDS011;22752;51.960;5.886;2022-07-23T11:05:47;5.13;;;1.65;;
36799;SDS011;22752;51.960;5.886;2022-07-23T11:08:16;2.10;;;1.50;;
36799;SDS011;22752;51.960;5.886;2022-07-23T11:24:03;3.35;;;1.83;;
36799;SDS011;22752;51.960;5.886;2022-07-23T11:31:57;3.88;;;1.75;;
36799;SDS011;22752;51.960;5.886;2022-07-23T11:37:04;3.50;;;1.52;;
36799;SDS011;22752;51.960;5.886;2022-07-23T11:39:32;2.10;;;1.40;;
36799;SDS011;22752;51.960;5.886;2022-07-23T11:41:59;2.85;;;1.55;;
36799;SDS011;22752;51.960;5.886;2022-07-23T11:44:26;4.90;;;1.80;;
36799;SDS011;22752;51.960;5.886;2022-07-23T11:47:00;3.50;;;1.90;;
36799;SDS011;22752;51.960;5.886;2022-07-23T11:49:31;4.38;;;1.70;;
36799;SDS011;22752;51.960;5.886;2022-07-23T11:54:29;2.47;;;1.70;;
36799;SDS011;22752;51.960;5.886;2022-07-23T11:56:59;5.10;;;1.60;;
36799;SDS011;22752;51.960;5.886;2022-07-23T11:59:26;3.83;;;1.70;;
36799;SDS011;22752;51.960;5.886;2022-07-23T12:02:00;3.22;;;1.77;;
36799;SDS011;22752;51.960;5.886;2022-07-23T12:04:37;4.00;;;1.83;;
36799;SDS011;22752;51.960;5.886;2022-07-23T12:07:04;3.10;;;1.92;;
36799;SDS011;22752;51.960;5.886;2022-07-23T12:09:47;3.33;;;1.50;;
36799;SDS011;22752;51.960;5.886;2022-07-23T12:12:13;1.75;;;1.45;;
36799;SDS011;22752;51.960;5.886;2022-07-23T12:14:47;3.15;;;1.52;;
36799;SDS011;22752;51.960;5.886;2022-07-23T12:17:29;6.05;;;1.83;;
36799;SDS011;22752;51.960;5.886;2022-07-23T12:19:59;3.40;;;2.05;;
36799;SDS011;22752;51.960;5.886;2022-07-23T12:22:26;3.08;;;1.65;;
36799;SDS011;22752;51.960;5.886;2022-07-23T12:25:05;3.40;;;1.60;;
36799;SDS011;22752;51.960;5.886;2022-07-23T12:27:31;2.92;;;1.65;;
36799;SDS011;22752;51.960;5.886;2022-07-23T12:29:57;2.65;;;1.60;;
36799;SDS011;22752;51.960;5.886;2022-07-23T12:32:27;3.17;;;1.85;;
36799;SDS011;22752;51.960;5.886;2022-07-23T12:35:07;2.55;;;1.50;;
36799;SDS011;22752;51.960;5.886;2022-07-23T12:37:34;3.55;;;1.77;;
36799;SDS011;22752;51.960;5.886;2022-07-23T12:42:57;3.17;;;1.80;;
36799;SDS011;22752;51.960;5.886;2022-07-23T12:45:25;3.25;;;2.45;;
36799;SDS011;22752;51.960;5.886;2022-07-23T12:50:30;1.92;;;1.60;;
36799;SDS011;22752;51.960;5.886;2022-07-23T12:53:06;2.85;;;2.00;;
36799;SDS011;22752;51.960;5.886;2022-07-23T12:55:41;3.30;;;1.77;;
36799;SDS011;22752;51.960;5.886;2022-07-23T12:58:12;3.80;;;1.98;;
36799;SDS011;22752;51.960;5.886;2022-07-23T13:00:57;3.17;;;1.63;;
36799;SDS011;22752;51.960;5.886;2022-07-23T13:05:58;3.63;;;1.70;;
36799;SDS011;22752;51.960;5.886;2022-07-23T13:08:26;3.20;;;1.70;;
36799;SDS011;22752;51.960;5.886;2022-07-23T13:10:54;3.13;;;1.80;;
36799;SDS011;22752;51.960;5.886;2022-07-23T13:13:21;3.38;;;2.00;;
36799;SDS011;22752;51.960;5.886;2022-07-23T13:15:49;2.85;;;1.52;;
36799;SDS011;22752;51.960;5.886;2022-07-23T13:18:15;4.57;;;2.42;;
36799;SDS011;22752;51.960;5.886;2022-07-23T13:20:41;4.90;;;1.73;;
36799;SDS011;22752;51.960;5.886;2022-07-23T13:23:08;5.38;;;2.00;;
36799;SDS011;22752;51.960;5.886;2022-07-23T13:25:34;3.65;;;2.00;;
36799;SDS011;22752;51.960;5.886;2022-07-23T13:27:59;5.55;;;2.20;;
36799;SDS011;22752;51.960;5.886;2022-07-23T13:30:25;4.43;;;2.10;;
36799;SDS011;22752;51.960;5.886;2022-07-23T13:32:51;4.57;;;1.77;;
36799;SDS011;22752;51.960;5.886;2022-07-23T13:35:17;3.35;;;2.22;;
36799;SDS011;22752;51.960;5.886;2022-07-23T13:37:42;3.75;;;2.22;;
36799;SDS011;22752;51.960;5.886;2022-07-23T13:40:08;4.43;;;1.90;;
36799;SDS011;22752;51.960;5.886;2022-07-23T13:42:35;3.05;;;2.00;;
36799;SDS011;22752;51.960;5.886;2022-07-23T13:45:02;3.13;;;1.80;;
36799;SDS011;22752;51.960;5.886;2022-07-23T13:47:28;4.35;;;2.10;;
36799;SDS011;22752;51.960;5.886;2022-07-23T13:49:54;2.67;;;1.80;;
36799;SDS011;22752;51.960;5.886;2022-07-23T13:52:19;4.30;;;1.75;;
36799;SDS011;22752;51.960;5.886;2022-07-23T13:54:45;5.15;;;1.95;;
36799;SDS011;22752;51.960;5.886;2022-07-23T13:57:11;3.42;;;1.67;;
36799;SDS011;22752;51.960;5.886;2022-07-23T13:59:36;3.00;;;2.03;;
36799;SDS011;22752;51.960;5.886;2022-07-23T14:02:03;4.32;;;1.80;;
36799;SDS011;22752;51.960;5.886;2022-07-23T14:04:29;2.80;;;2.03;;
36799;SDS011;22752;51.960;5.886;2022-07-23T14:06:55;5.25;;;2.08;;
36799;SDS011;22752;51.960;5.886;2022-07-23T14:09:21;5.88;;;2.22;;
36799;SDS011;22752;51.960;5.886;2022-07-23T14:11:47;4.15;;;2.20;;
36799;SDS011;22752;51.960;5.886;2022-07-23T14:14:13;3.17;;;2.03;;
36799;SDS011;22752;51.960;5.886;2022-07-23T14:16:38;2.78;;;1.90;;
36799;SDS011;22752;51.960;5.886;2022-07-23T14:19:04;2.42;;;1.67;;
36799;SDS011;22752;51.960;5.886;2022-07-23T14:21:30;6.00;;;2.10;;
36799;SDS011;22752;51.960;5.886;2022-07-23T14:23:55;2.15;;;1.80;;
36799;SDS011;22752;51.960;5.886;2022-07-23T14:26:21;4.45;;;1.83;;
36799;SDS011;22752;51.960;5.886;2022-07-23T14:28:47;2.63;;;1.90;;
36799;SDS011;22752;51.960;5.886;2022-07-23T14:31:12;3.30;;;2.03;;
36799;SDS011;22752;51.960;5.886;2022-07-23T14:33:38;9.73;;;2.40;;
36799;SDS011;22752;51.960;5.886;2022-07-23T14:36:03;3.72;;;2.20;;
36799;SDS011;22752;51.960;5.886;2022-07-23T14:38:29;2.78;;;2.13;;
36799;SDS011;22752;51.960;5.886;2022-07-23T14:40:55;2.40;;;1.80;;
36799;SDS011;22752;51.960;5.886;2022-07-23T14:43:21;3.67;;;2.00;;
36799;SDS011;22752;51.960;5.886;2022-07-23T14:45:47;3.15;;;2.00;;
36799;SDS011;22752;51.960;5.886;2022-07-23T14:48:13;3.38;;;1.98;;
36799;SDS011;22752;51.960;5.886;2022-07-23T14:50:39;2.65;;;1.90;;
36799;SDS011;22752;51.960;5.886;2022-07-23T14:53:04;2.10;;;1.90;;
36799;SDS011;22752;51.960;5.886;2022-07-23T14:55:34;4.07;;;2.20;;
36799;SDS011;22752;51.960;5.886;2022-07-23T14:57:59;3.72;;;2.28;;
36799;SDS011;22752;51.960;5.886;2022-07-23T15:00:25;3.22;;;2.00;;
36799;SDS011;22752;51.960;5.886;2022-07-23T15:02:51;3.33;;;1.90;;
36799;SDS011;22752;51.960;5.886;2022-07-23T15:05:18;2.40;;;2.00;;
36799;SDS011;22752;51.960;5.886;2022-07-23T15:07:44;3.47;;;2.10;;
36799;SDS011;22752;51.960;5.886;2022-07-23T15:10:09;3.35;;;1.83;;
36799;SDS011;22752;51.960;5.886;2022-07-23T15:12:35;3.28;;;1.95;;
36799;SDS011;22752;51.960;5.886;2022-07-23T15:15:01;3.33;;;2.35;;
36799;SDS011;22752;51.960;5.886;2022-07-23T15:17:26;2.90;;;2.00;;
36799;SDS011;22752;51.960;5.886;2022-07-23T15:19:52;3.55;;;2.15;;
36799;SDS011;22752;51.960;5.886;2022-07-23T15:22:18;2.75;;;1.80;;
36799;SDS011;22752;51.960;5.886;2022-07-23T15:24:43;2.97;;;2.28;;
36799;SDS011;22752;51.960;5.886;2022-07-23T15:27:09;2.05;;;1.77;;
36799;SDS011;22752;51.960;5.886;2022-07-23T15:29:35;3.95;;;2.35;;
36799;SDS011;22752;51.960;5.886;2022-07-23T15:32:01;3.30;;;1.90;;
36799;SDS011;22752;51.960;5.886;2022-07-23T15:34:28;3.88;;;1.90;;
36799;SDS011;22752;51.960;5.886;2022-07-23T15:36:54;1.95;;;1.75;;
36799;SDS011;22752;51.960;5.886;2022-07-23T15:39:20;3.17;;;1.70;;
36799;SDS011;22752;51.960;5.886;2022-07-23T15:41:46;2.47;;;2.00;;
36799;SDS011;22752;51.960;5.886;2022-07-23T15:44:11;4.18;;;2.55;;